Time;durP1;ratioP1;P1;durP2;ratioP2;P2;SDS_P1;SDS_P2;PMS_P1;PMS_P2;Temp;Humidity;BMP_temperature;BMP_pressure;BME280_temperature;BME280_humidity;BME280_pressure;Samples;Min_cycle;Max_cycle;Signal;HPM_P1;HPM_P2
2023/11/09 00:02:34;;;;;;;12.18;5.85;;;;;;;;;;10013680;28;20060;-72
2023/11/09 00:07:28;;;;;;;4.13;3.65;;;;;;;;;;10025389;28;20096;-72
2023/11/09 00:12:20;;;;;;;5.07;4.20;;;;;;;;;;10032360;28;20544;-72
2023/11/09 00:17:12;;;;;;;8.77;5.20;;;;;;;;;;10028140;28;20396;-72
2023/11/09 00:22:04;;;;;;;8.80;4.60;;;;;;;;;;10025775;28;20073;-72
2023/11/09 00:26:57;;;;;;;12.05;5.70;;;;;;;;;;10027035;28;20456;-72
2023/11/09 00:31:49;;;;;;;10.23;5.10;;;;;;;;;;10025992;28;20092;-72
2023/11/09 00:36:42;;;;;;;7.22;4.72;;;;;;;;;;10025794;28;20149;-72
2023/11/09 00:41:34;;;;;;;9.88;5.25;;;;;;;;;;10026073;28;20061;-72
2023/11/09 00:46:26;;;;;;;4.97;4.25;;;;;;;;;;10025858;28;20037;-72
2023/11/09 00:51:18;;;;;;;8.05;4.05;;;;;;;;;;10024528;28;20057;-72
2023/11/09 00:56:10;;;;;;;8.13;4.45;;;;;;;;;;10040178;28;20049;-72
2023/11/09 01:01:02;;;;;;;7.05;4.65;;;;;;;;;;10025092;28;20092;-72
2023/11/09 01:05:55;;;;;;;9.38;4.68;;;;;;;;;;10035344;28;20542;-72
2023/11/09 01:10:47;;;;;;;10.07;4.60;;;;;;;;;;10062582;28;20408;-72
2023/11/09 01:15:39;;;;;;;8.43;3.60;;;;;;;;;;10063838;28;20519;-72
2023/11/09 01:20:32;;;;;;;3.95;3.38;;;;;;;;;;10043475;28;20522;-72
2023/11/09 01:25:24;;;;;;;5.95;4.13;;;;;;;;;;10023764;28;20125;-72
2023/11/09 01:30:16;;;;;;;6.70;3.97;;;;;;;;;;10023141;28;20042;-72
2023/11/09 01:35:08;;;;;;;4.35;3.90;;;;;;;;;;10020269;28;20440;-72
2023/11/09 01:40:04;;;;;;;8.77;4.03;;;;;;;;;;10021903;28;20366;-72
2023/11/09 01:44:56;;;;;;;7.00;3.45;;;;;;;;;;10060157;28;20080;-72
2023/11/09 01:49:48;;;;;;;6.93;4.43;;;;;;;;;;10062455;28;20124;-72
2023/11/09 01:54:40;;;;;;;4.28;3.60;;;;;;;;;;10044876;28;20172;-71
2023/11/09 01:59:33;;;;;;;5.28;3.55;;;;;;;;;;10044179;28;20054;-72
2023/11/09 02:04:26;;;;;;;5.15;3.53;;;;;;;;;;10057506;28;20521;-72
2023/11/09 02:09:18;;;;;;;8.82;5.07;;;;;;;;;;9989906;28;20053;-72
2023/11/09 02:14:10;;;;;;;6.97;4.03;;;;;;;;;;10021213;28;20495;-72
2023/11/09 02:19:02;;;;;;;5.88;3.30;;;;;;;;;;10021589;28;20128;-72
2023/11/09 02:23:55;;;;;;;8.38;4.70;;;;;;;;;;10013072;28;20045;-72
2023/11/09 02:28:47;;;;;;;8.40;4.78;;;;;;;;;;9990115;28;20480;-72
2023/11/09 02:33:43;;;;;;;6.53;3.10;;;;;;;;;;10003307;28;20104;-72
2023/11/09 02:38:34;;;;;;;5.30;3.20;;;;;;;;;;10022938;28;20469;-72
2023/11/09 02:43:26;;;;;;;6.15;3.40;;;;;;;;;;10020005;28;20552;-72
2023/11/09 02:48:18;;;;;;;4.45;2.95;;;;;;;;;;10021652;28;20065;-72
2023/11/09 02:53:10;;;;;;;4.20;3.15;;;;;;;;;;10021494;28;20045;-71
2023/11/09 02:58:04;;;;;;;5.53;3.45;;;;;;;;;;10026679;28;20416;-72
2023/11/09 03:02:56;;;;;;;17.42;4.22;;;;;;;;;;10023211;28;20121;-72
2023/11/09 03:07:48;;;;;;;9.52;3.42;;;;;;;;;;10024729;28;20068;-72
2023/11/09 03:12:40;;;;;;;9.13;4.20;;;;;;;;;;10017358;28;20058;-72
2023/11/09 03:17:32;;;;;;;5.10;3.70;;;;;;;;;;10024203;28;20461;-72
2023/11/09 03:22:24;;;;;;;9.05;3.80;;;;;;;;;;10026209;28;20076;-72
2023/11/09 03:27:16;;;;;;;4.82;3.97;;;;;;;;;;10027566;28;20045;-72
2023/11/09 03:32:09;;;;;;;7.25;4.50;;;;;;;;;;10026580;28;20056;-72
2023/11/09 03:37:01;;;;;;;5.25;3.58;;;;;;;;;;10032172;28;20461;-72
2023/11/09 03:41:53;;;;;;;5.50;3.58;;;;;;;;;;10015041;28;20042;-72
2023/11/09 03:46:49;;;;;;;3.75;3.22;;;;;;;;;;10031004;28;20543;-72
2023/11/09 03:51:41;;;;;;;4.65;3.72;;;;;;;;;;10031380;28;20061;-72
2023/11/09 03:56:35;;;;;;;5.13;3.88;;;;;;;;;;10032991;28;20060;-73
2023/11/09 04:01:27;;;;;;;9.73;4.15;;;;;;;;;;10033791;28;20551;-72
2023/11/09 04:06:19;;;;;;;6.70;4.25;;;;;;;;;;10029992;28;20049;-72
2023/11/09 04:11:11;;;;;;;5.50;3.63;;;;;;;;;;10030984;28;20053;-72
2023/11/09 04:16:03;;;;;;;5.20;2.88;;;;;;;;;;10032954;28;20535;-72
2023/11/09 04:20:55;;;;;;;10.15;4.68;;;;;;;;;;10033251;28;20042;-72
2023/11/09 04:25:47;;;;;;;5.10;3.40;;;;;;;;;;10031647;28;20038;-72
2023/11/09 04:30:38;;;;;;;5.85;3.75;;;;;;;;;;10031869;28;20046;-72
2023/11/09 04:35:30;;;;;;;12.82;4.57;;;;;;;;;;10033976;28;20503;-72
2023/11/09 04:40:25;;;;;;;5.53;4.25;;;;;;;;;;10033231;28;20034;-72
2023/11/09 04:45:17;;;;;;;4.47;4.03;;;;;;;;;;10030675;28;20038;-71
2023/11/09 04:50:14;;;;;;;4.93;3.55;;;;;;;;;;10030810;28;20058;-72
2023/11/09 04:55:14;;;;;;;8.23;3.38;;;;;;;;;;10031267;28;20049;-72
2023/11/09 05:10:28;;;;;;;14.75;5.43;;;;;;;;;;10028965;28;20037;-72
2023/11/09 05:15:19;;;;;;;6.95;5.20;;;;;;;;;;10029801;28;20068;-72
2023/11/09 05:20:13;;;;;;;7.20;4.38;;;;;;;;;;10032518;28;20083;-72
2023/11/09 05:25:06;;;;;;;5.38;4.80;;;;;;;;;;10030779;28;20389;-72
2023/11/09 05:29:58;;;;;;;9.23;4.60;;;;;;;;;;10031094;28;20076;-72
2023/11/09 05:34:51;;;;;;;5.45;4.40;;;;;;;;;;10025691;28;20047;-71
2023/11/09 05:39:43;;;;;;;10.32;7.65;;;;;;;;;;10024129;28;20413;-72
2023/11/09 05:44:34;;;;;;;16.45;9.38;;;;;;;;;;10024865;28;20356;-72
2023/11/09 05:49:26;;;;;;;6.53;5.53;;;;;;;;;;10027512;28;20112;-72
2023/11/09 05:54:18;;;;;;;6.95;5.30;;;;;;;;;;10026536;28;20447;-72
2023/11/09 05:59:10;;;;;;;5.68;3.90;;;;;;;;;;10024473;28;20069;-72
2023/11/09 06:04:05;;;;;;;4.80;3.45;;;;;;;;;;10027870;28;20062;-72
2023/11/09 06:08:58;;;;;;;53.05;45.83;;;;;;;;;;10010085;28;20564;-72
2023/11/09 06:13:51;;;;;;;41.00;31.17;;;;;;;;;;10025889;28;20162;-71
2023/11/09 06:18:43;;;;;;;8.07;5.90;;;;;;;;;;10025972;28;20116;-72
2023/11/09 06:23:35;;;;;;;5.05;4.50;;;;;;;;;;10025752;28;20046;-73
2023/11/09 06:28:28;;;;;;;5.88;4.65;;;;;;;;;;10028758;28;20428;-71
2023/11/09 06:33:20;;;;;;;38.10;28.73;;;;;;;;;;10026119;28;20524;-71
2023/11/09 06:38:19;;;;;;;16.27;13.05;;;;;;;;;;10009757;28;20054;-73
2023/11/09 06:43:12;;;;;;;;;;;;;;;;;;10026490;28;20057;-73
2023/11/09 06:48:05;;;;;;;22.45;15.20;;;;;;;;;;10026396;28;19948;-73
2023/11/09 06:52:57;;;;;;;5.00;4.03;;;;;;;;;;10024290;28;20050;-73
2023/11/09 06:57:50;;;;;;;4.78;3.75;;;;;;;;;;10026572;28;20045;-73
2023/11/09 07:02:47;;;;;;;23.50;12.68;;;;;;;;;;10046583;28;20454;-73
2023/11/09 07:07:39;;;;;;;5.55;4.80;;;;;;;;;;10064853;28;20137;-73
2023/11/09 07:12:31;;;;;;;3.80;2.33;;;;;;;;;;10070615;28;20041;-73
2023/11/09 07:17:23;;;;;;;6.97;4.03;;;;;;;;;;10060956;28;20125;-73
2023/11/09 07:22:15;;;;;;;27.25;18.50;;;;;;;;;;10054878;28;20042;-73
2023/11/09 07:27:09;;;;;;;12.75;8.77;;;;;;;;;;10064275;28;20142;-73
2023/11/09 07:32:01;;;;;;;14.18;8.70;;;;;;;;;;10057425;28;20058;-73
2023/11/09 07:36:53;;;;;;;17.33;9.27;;;;;;;;;;10033531;28;20060;-73
2023/11/09 07:41:45;;;;;;;19.33;11.57;;;;;;;;;;10046234;28;20078;-73
2023/11/09 07:46:37;;;;;;;18.92;11.32;;;;;;;;;;10050323;28;20069;-73
2023/11/09 07:51:29;;;;;;;15.95;9.30;;;;;;;;;;10055753;28;20054;-73
2023/11/09 07:56:23;;;;;;;14.93;7.90;;;;;;;;;;10065163;28;20091;-72
2023/11/09 08:01:14;;;;;;;7.65;5.10;;;;;;;;;;10044731;28;20133;-73
2023/11/09 08:06:07;;;;;;;10.73;6.05;;;;;;;;;;10032419;28;20114;-73
2023/11/09 08:10:59;;;;;;;12.65;7.68;;;;;;;;;;10031627;28;20041;-73
2023/11/09 08:15:51;;;;;;;17.08;8.88;;;;;;;;;;10031867;28;20046;-73
2023/11/09 08:20:43;;;;;;;8.57;6.40;;;;;;;;;;10030682;28;20050;-73
2023/11/09 08:25:35;;;;;;;10.50;6.97;;;;;;;;;;10031327;28;20497;-73
2023/11/09 08:30:27;;;;;;;8.10;5.82;;;;;;;;;;10031634;28;20041;-73
2023/11/09 08:35:23;;;;;;;8.93;5.10;;;;;;;;;;10030762;28;20061;-73
2023/11/09 08:40:24;;;;;;;6.38;4.80;;;;;;;;;;10031316;28;20042;-73
2023/11/09 08:45:17;;;;;;;7.90;5.07;;;;;;;;;;10031258;28;20041;-73
2023/11/09 08:50:10;;;;;;;9.10;7.20;;;;;;;;;;10027536;28;20181;-71
2023/11/09 08:55:04;;;;;;;15.90;6.63;;;;;;;;;;10011247;28;20433;-73
2023/11/09 08:59:56;;;;;;;8.85;6.50;;;;;;;;;;10011962;28;20062;-73
2023/11/09 09:04:48;;;;;;;13.32;9.40;;;;;;;;;;10035955;28;20041;-73
2023/11/09 09:09:43;;;;;;;16.45;8.98;;;;;;;;;;10058685;28;20108;-73
2023/11/09 09:14:37;;;;;;;11.57;8.60;;;;;;;;;;10046478;28;20140;-73
2023/11/09 09:19:30;;;;;;;16.67;9.20;;;;;;;;;;10042123;28;20045;-73
2023/11/09 09:24:23;;;;;;;15.35;7.88;;;;;;;;;;10037112;28;20084;-73
2023/11/09 09:29:15;;;;;;;13.50;8.70;;;;;;;;;;10035844;28;20053;-73
2023/11/09 09:34:08;;;;;;;15.80;9.93;;;;;;;;;;10030800;28;20041;-73
2023/11/09 09:39:01;;;;;;;11.63;6.90;;;;;;;;;;10035559;28;20460;-75
2023/11/09 09:43:54;;;;;;;11.00;6.95;;;;;;;;;;10030066;28;20084;-73
2023/11/09 09:48:46;;;;;;;31.23;5.43;;;;;;;;;;10031850;28;20382;-70
2023/11/09 09:53:39;;;;;;;12.48;4.22;;;;;;;;;;10026083;28;20056;-69
2023/11/09 09:58:31;;;;;;;7.85;3.25;;;;;;;;;;10026618;28;20069;-69
2023/11/09 10:03:25;;;;;;;6.95;2.70;;;;;;;;;;10018890;28;20042;-70
2023/11/09 10:08:17;;;;;;;3.97;2.85;;;;;;;;;;10013553;28;20042;-70
2023/11/09 10:13:10;;;;;;;3.58;2.55;;;;;;;;;;10015656;28;20393;-70
2023/11/09 10:18:03;;;;;;;10.23;3.30;;;;;;;;;;10020042;28;20052;-68
2023/11/09 10:22:56;;;;;;;9.13;3.35;;;;;;;;;;10014861;28;20046;-71
2023/11/09 10:27:48;;;;;;;9.77;3.72;;;;;;;;;;10038721;28;20472;-68
2023/11/09 10:32:43;;;;;;;14.38;4.80;;;;;;;;;;10053506;28;20052;-68
2023/11/09 10:37:37;;;;;;;11.23;5.22;;;;;;;;;;10062336;28;20072;-70
2023/11/09 10:42:30;;;;;;;9.68;7.20;;;;;;;;;;10062607;28;20064;-68
2023/11/09 10:47:26;;;;;;;14.30;9.10;;;;;;;;;;10062385;28;20144;-71
2023/11/09 10:52:21;;;;;;;14.82;8.50;;;;;;;;;;10061675;28;20194;-70
2023/11/09 10:57:13;;;;;;;13.38;8.52;;;;;;;;;;10064053;28;20437;-68
2023/11/09 11:02:11;;;;;;;10.32;8.73;;;;;;;;;;10062923;28;20083;-70
2023/11/09 11:07:06;;;;;;;9.70;8.57;;;;;;;;;;10058960;28;20163;-69
2023/11/09 11:12:00;;;;;;;11.55;5.90;;;;;;;;;;10034844;28;20053;-69
2023/11/09 11:17:19;;;;;;;6.78;4.65;;;;;;;;;;10057877;28;20349;-68
2023/11/09 11:22:50;;;;;;;10.18;5.75;;;;;;;;;;10055245;28;20084;-69
2023/11/09 11:28:00;;;;;;;6.55;4.82;;;;;;;;;;10040515;28;20037;-68
2023/11/09 11:32:54;;;;;;;11.50;5.07;;;;;;;;;;10031079;28;20497;-66
2023/11/09 11:37:48;;;;;;;12.50;9.55;;;;;;;;;;10026197;28;20042;-66
2023/11/09 11:42:40;;;;;;;11.93;6.82;;;;;;;;;;10033242;28;20132;-66
2023/11/09 11:47:32;;;;;;;7.75;5.60;;;;;;;;;;10005305;28;20138;-66
2023/11/09 11:52:24;;;;;;;13.27;6.05;;;;;;;;;;10022233;28;20046;-67
2023/11/09 11:57:16;;;;;;;9.13;6.15;;;;;;;;;;10024184;28;20034;-66
2023/11/09 12:02:12;;;;;;;10.82;6.03;;;;;;;;;;10031575;28;20520;-66
2023/11/09 12:07:10;;;;;;;8.60;5.40;;;;;;;;;;10004766;28;20461;-66
2023/11/09 12:12:02;;;;;;;9.57;5.63;;;;;;;;;;10027149;28;20049;-66
2023/11/09 12:16:54;;;;;;;5.75;5.05;;;;;;;;;;10028768;28;20437;-68
2023/11/09 12:21:46;;;;;;;9.70;6.35;;;;;;;;;;10032678;28;20131;-69
2023/11/09 12:26:39;;;;;;;8.23;6.32;;;;;;;;;;10023808;28;20058;-68
2023/11/09 12:31:31;;;;;;;6.85;5.50;;;;;;;;;;10018126;28;20092;-68
2023/11/09 12:36:23;;;;;;;14.15;6.10;;;;;;;;;;10026407;28;20056;-68
2023/11/09 12:41:16;;;;;;;9.13;4.38;;;;;;;;;;10014702;28;20388;-68
2023/11/09 12:46:14;;;;;;;7.82;4.00;;;;;;;;;;10043696;28;20117;-66
2023/11/09 12:51:08;;;;;;;5.85;3.80;;;;;;;;;;10068694;28;20045;-68
2023/11/09 12:56:01;;;;;;;9.93;5.35;;;;;;;;;;10045832;28;20048;-74
2023/11/09 13:00:54;;;;;;;6.45;4.45;;;;;;;;;;10066800;28;20076;-71
2023/11/09 13:05:49;;;;;;;5.32;4.57;;;;;;;;;;10044406;28;20121;-71
2023/11/09 13:10:44;;;;;;;5.30;4.30;;;;;;;;;;10058327;28;20050;-73
2023/11/09 13:15:37;;;;;;;7.07;4.88;;;;;;;;;;10041649;28;20459;-72
2023/11/09 13:20:38;;;;;;;7.72;5.60;;;;;;;;;;10030170;28;20050;-72
2023/11/09 13:25:35;;;;;;;5.72;5.10;;;;;;;;;;10030912;28;20073;-73
2023/11/09 13:30:28;;;;;;;7.95;7.10;;;;;;;;;;10055655;28;20037;-74
2023/11/09 13:35:24;;;;;;;10.93;7.38;;;;;;;;;;10061810;28;20092;-73
2023/11/09 13:50:24;;;;;;;11.80;9.40;;;;;;;;;;10065022;28;20076;-75
2023/11/09 13:56:25;;;;;;;14.25;10.18;;;;;;;;;;10044649;28;20049;-74
2023/11/09 14:00:36;;;;;;;14.23;10.75;;;;;;;;;;10060142;28;20048;-74
2023/11/09 14:05:29;;;;;;;14.32;9.95;;;;;;;;;;10063662;28;20041;-72
2023/11/09 14:10:28;;;;;;;14.43;9.38;;;;;;;;;;10036104;28;20037;-73
2023/11/09 14:15:24;;;;;;;11.80;8.52;;;;;;;;;;10026893;28;20440;-74
2023/11/09 14:20:41;;;;;;;17.23;9.48;;;;;;;;;;10024968;28;20040;-72
2023/11/09 14:25:34;;;;;;;12.75;9.82;;;;;;;;;;10017259;28;20402;-72
2023/11/09 14:30:31;;;;;;;16.70;10.88;;;;;;;;;;10025971;28;20042;-72
2023/11/09 14:35:23;;;;;;;36.83;20.58;;;;;;;;;;10024786;28;20445;-72
2023/11/09 14:40:18;;;;;;;16.85;12.82;;;;;;;;;;10024912;28;20141;-70
2023/11/09 14:45:15;;;;;;;13.63;9.48;;;;;;;;;;10025387;28;20056;-71
2023/11/09 14:50:11;;;;;;;15.63;11.40;;;;;;;;;;10022651;28;20046;-73
2023/11/09 14:55:05;;;;;;;15.35;11.20;;;;;;;;;;10025007;28;20107;-73
2023/11/09 14:59:57;;;;;;;19.02;12.02;;;;;;;;;;10024660;28;20077;-72
2023/11/09 15:04:54;;;;;;;16.65;12.55;;;;;;;;;;10023463;28;20038;-72
2023/11/09 15:09:52;;;;;;;16.70;12.53;;;;;;;;;;10019163;28;20480;-72
2023/11/09 15:14:48;;;;;;;16.08;13.63;;;;;;;;;;10004524;28;20050;-72
2023/11/09 15:19:41;;;;;;;19.70;14.77;;;;;;;;;;10019427;28;20873;-72
2023/11/09 15:24:34;;;;;;;21.92;16.33;;;;;;;;;;10015403;28;20105;-72
2023/11/09 15:29:28;;;;;;;33.75;24.33;;;;;;;;;;10016232;28;20424;-74
2023/11/09 15:34:20;;;;;;;25.00;19.98;;;;;;;;;;10027940;28;20053;-71
2023/11/09 15:39:19;;;;;;;32.28;23.92;;;;;;;;;;10031205;28;20072;-74
2023/11/09 15:44:28;;;;;;;30.00;24.13;;;;;;;;;;10028116;28;20495;-73
2023/11/09 15:49:20;;;;;;;29.35;26.17;;;;;;;;;;10031460;28;20077;-74
2023/11/09 15:54:13;;;;;;;27.92;24.73;;;;;;;;;;10030622;28;20084;-73
2023/11/09 15:59:06;;;;;;;32.38;25.45;;;;;;;;;;10020679;28;20066;-74
2023/11/09 16:03:59;;;;;;;30.25;26.95;;;;;;;;;;10024598;28;20049;-74
2023/11/09 16:08:51;;;;;;;39.80;28.35;;;;;;;;;;10016827;28;20125;-73
2023/11/09 16:13:44;;;;;;;35.60;30.33;;;;;;;;;;10029389;28;20400;-73
2023/11/09 16:18:38;;;;;;;33.08;28.83;;;;;;;;;;10030127;28;20077;-73
2023/11/09 16:23:31;;;;;;;38.28;29.27;;;;;;;;;;10030085;28;20049;-72
2023/11/09 16:28:23;;;;;;;40.15;30.88;;;;;;;;;;10017468;28;20485;-73
2023/11/09 16:33:17;;;;;;;37.60;32.70;;;;;;;;;;10026704;28;20041;-73
2023/11/09 16:38:10;;;;;;;37.42;31.55;;;;;;;;;;9998236;28;20046;-76
2023/11/09 16:43:03;;;;;;;38.58;32.33;;;;;;;;;;10020432;28;20121;-75
2023/11/09 16:47:55;;;;;;;60.40;45.90;;;;;;;;;;10026895;28;20050;-76
2023/11/09 16:52:46;;;;;;;48.90;39.15;;;;;;;;;;10013261;28;20048;-76
2023/11/09 16:57:43;;;;;;;39.38;35.13;;;;;;;;;;10007150;28;20072;-76
2023/11/09 17:02:35;;;;;;;47.58;36.50;;;;;;;;;;10022976;28;20042;-76
2023/11/09 17:07:27;;;;;;;44.95;37.28;;;;;;;;;;10025146;28;20041;-75
2023/11/09 17:12:35;;;;;;;42.97;37.53;;;;;;;;;;10019990;28;20140;-75
2023/11/09 17:17:27;;;;;;;42.35;36.60;;;;;;;;;;10021402;28;20053;-76
2023/11/09 17:22:19;;;;;;;42.08;35.13;;;;;;;;;;10022854;28;20494;-76
2023/11/09 17:27:11;;;;;;;42.78;36.15;;;;;;;;;;10026631;28;20053;-75
2023/11/09 17:32:04;;;;;;;42.42;35.55;;;;;;;;;;10022726;28;20456;-71
2023/11/09 17:36:57;;;;;;;42.45;37.90;;;;;;;;;;10025316;28;20062;-72
2023/11/09 17:41:49;;;;;;;43.15;38.22;;;;;;;;;;10027021;28;20429;-72
2023/11/09 17:46:42;;;;;;;41.50;34.55;;;;;;;;;;10018520;28;20054;-71
2023/11/09 17:51:34;;;;;;;46.90;35.70;;;;;;;;;;10020856;28;20057;-71
2023/11/09 17:56:26;;;;;;;40.15;35.72;;;;;;;;;;10021774;28;20084;-72
2023/11/09 18:01:19;;;;;;;42.15;37.47;;;;;;;;;;10023473;28;20381;-72
2023/11/09 18:06:12;;;;;;;41.20;36.70;;;;;;;;;;10023456;28;20054;-71
2023/11/09 18:11:05;;;;;;;47.45;38.63;;;;;;;;;;10022440;28;20176;-71
2023/11/09 18:15:57;;;;;;;40.15;35.88;;;;;;;;;;10022046;28;20380;-71
2023/11/09 18:20:49;;;;;;;41.90;37.42;;;;;;;;;;10023207;28;20045;-70
2023/11/09 18:25:41;;;;;;;38.58;33.88;;;;;;;;;;10020362;28;20049;-71
2023/11/09 18:30:33;;;;;;;41.53;36.40;;;;;;;;;;10022956;28;20444;-71
2023/11/09 18:35:27;;;;;;;42.30;37.72;;;;;;;;;;10022477;28;20049;-72
2023/11/09 18:40:19;;;;;;;40.45;36.35;;;;;;;;;;10015439;28;20046;-70
2023/11/09 18:45:11;;;;;;;37.65;33.22;;;;;;;;;;10012250;28;20046;-71
2023/11/09 18:50:04;;;;;;;34.67;30.90;;;;;;;;;;10015190;28;20050;-70
2023/11/09 18:54:58;;;;;;;34.10;30.02;;;;;;;;;;10009511;28;20049;-70
2023/11/09 18:59:50;;;;;;;35.60;31.48;;;;;;;;;;10025411;28;20133;-70
2023/11/09 19:04:42;;;;;;;36.28;32.38;;;;;;;;;;10014942;28;20099;-70
2023/11/09 19:09:34;;;;;;;37.88;32.78;;;;;;;;;;10020456;28;20056;-70
2023/11/09 19:14:26;;;;;;;37.45;33.47;;;;;;;;;;10055713;28;20557;-70
2023/11/09 19:19:18;;;;;;;35.40;31.67;;;;;;;;;;10059230;28;20419;-70
2023/11/09 19:24:16;;;;;;;39.72;35.53;;;;;;;;;;10056019;28;20077;-70
2023/11/09 19:29:13;;;;;;;37.20;33.13;;;;;;;;;;10032784;28;20042;-70
2023/11/09 19:34:05;;;;;;;38.67;34.53;;;;;;;;;;10016238;28;20046;-70
2023/11/09 19:38:58;;;;;;;37.78;33.33;;;;;;;;;;10017273;28;20469;-70
2023/11/09 19:43:50;;;;;;;38.60;34.60;;;;;;;;;;10019446;28;20046;-70
2023/11/09 19:48:42;;;;;;;39.28;31.63;;;;;;;;;;10014731;28;20397;-70
2023/11/09 19:53:34;;;;;;;36.35;32.47;;;;;;;;;;10006639;28;20088;-70
2023/11/09 19:58:26;;;;;;;36.50;32.60;;;;;;;;;;10000808;28;20050;-70
2023/11/09 20:03:18;;;;;;;53.13;44.92;;;;;;;;;;10026442;28;20045;-70
2023/11/09 20:08:10;;;;;;;51.13;45.50;;;;;;;;;;10036328;28;20124;-71
2023/11/09 20:13:03;;;;;;;36.55;32.17;;;;;;;;;;10022913;28;20049;-71
2023/11/09 20:17:55;;;;;;;42.13;36.55;;;;;;;;;;10026317;28;20062;-70
2023/11/09 20:22:47;;;;;;;40.25;36.05;;;;;;;;;;10029753;28;20042;-70
2023/11/09 20:27:39;;;;;;;37.85;33.75;;;;;;;;;;10015900;28;20050;-70
2023/11/09 20:32:33;;;;;;;45.50;35.80;;;;;;;;;;10031676;28;20523;-70
2023/11/09 20:37:28;;;;;;;36.65;32.78;;;;;;;;;;10030700;28;20042;-71
2023/11/09 20:42:20;;;;;;;45.03;37.20;;;;;;;;;;10031753;28;20038;-70
2023/11/09 20:47:14;;;;;;;58.70;44.80;;;;;;;;;;10030578;28;20062;-70
2023/11/09 20:52:06;;;;;;;40.63;36.33;;;;;;;;;;10030531;28;20050;-70
2023/11/09 20:56:58;;;;;;;53.00;41.33;;;;;;;;;;10030267;28;20104;-70
2023/11/09 21:01:50;;;;;;;44.92;37.53;;;;;;;;;;10030679;28;20049;-70
2023/11/09 21:06:42;;;;;;;45.30;37.60;;;;;;;;;;10029202;28;20404;-71
2023/11/09 21:11:34;;;;;;;45.97;37.97;;;;;;;;;;10029274;28;20053;-69
2023/11/09 21:16:26;;;;;;;44.03;36.28;;;;;;;;;;10030081;28;20050;-69
2023/11/09 21:21:18;;;;;;;50.28;37.45;;;;;;;;;;10030237;28;20034;-69
2023/11/09 21:26:12;;;;;;;50.53;37.38;;;;;;;;;;10028768;28;20038;-69
2023/11/09 21:31:05;;;;;;;48.58;36.90;;;;;;;;;;10028078;28;20088;-69
2023/11/09 21:35:58;;;;;;;43.65;34.60;;;;;;;;;;10028574;28;20096;-70
2023/11/09 21:40:50;;;;;;;49.35;35.83;;;;;;;;;;10028955;28;20065;-69
2023/11/09 21:45:42;;;;;;;48.55;36.42;;;;;;;;;;10026013;28;20611;-69
2023/11/09 21:50:34;;;;;;;41.13;34.38;;;;;;;;;;10023213;28;20050;-69
2023/11/09 21:55:27;;;;;;;50.38;39.42;;;;;;;;;;10024715;28;20046;-70
2023/11/09 22:00:19;;;;;;;48.88;36.28;;;;;;;;;;10026135;28;20377;-69
2023/11/09 22:05:15;;;;;;;50.97;36.58;;;;;;;;;;10025237;28;20057;-69
2023/11/09 22:10:07;;;;;;;47.67;35.90;;;;;;;;;;10023773;28;20405;-69
2023/11/09 22:15:00;;;;;;;45.88;35.05;;;;;;;;;;10023798;28;20088;-70
2023/11/09 22:19:52;;;;;;;54.17;36.08;;;;;;;;;;10021002;28;20053;-69
2023/11/09 22:24:44;;;;;;;38.35;31.67;;;;;;;;;;10012379;28;20053;-69
2023/11/09 22:29:36;;;;;;;40.88;32.90;;;;;;;;;;10012842;28;20100;-69
2023/11/09 22:34:29;;;;;;;39.70;32.13;;;;;;;;;;10026739;28;20075;-70
2023/11/09 22:39:21;;;;;;;41.97;30.00;;;;;;;;;;10016843;28;20109;-70
2023/11/09 22:44:13;;;;;;;39.17;32.05;;;;;;;;;;10018579;28;20050;-69
2023/11/09 22:49:06;;;;;;;40.42;27.95;;;;;;;;;;10025933;28;20382;-70
2023/11/09 22:53:58;;;;;;;35.45;28.27;;;;;;;;;;10027033;28;20057;-70
2023/11/09 22:58:50;;;;;;;31.60;26.15;;;;;;;;;;10026611;28;20434;-70
2023/11/09 23:03:42;;;;;;;25.90;23.10;;;;;;;;;;10027131;28;20042;-70
2023/11/09 23:08:35;;;;;;;24.30;21.70;;;;;;;;;;10026477;28;20045;-70
2023/11/09 23:13:28;;;;;;;23.83;21.25;;;;;;;;;;10026824;28;20096;-70
2023/11/09 23:18:20;;;;;;;21.67;19.65;;;;;;;;;;10026087;28;20495;-70
2023/11/09 23:23:13;;;;;;;21.23;19.23;;;;;;;;;;10037255;28;20132;-70
2023/11/09 23:28:05;;;;;;;21.73;17.25;;;;;;;;;;10065530;28;20042;-71
2023/11/09 23:32:57;;;;;;;22.33;20.02;;;;;;;;;;10065778;28;20046;-70
2023/11/09 23:37:49;;;;;;;18.45;16.75;;;;;;;;;;10065309;28;20111;-70
2023/11/09 23:42:42;;;;;;;17.50;15.80;;;;;;;;;;10065395;28;20061;-70
2023/11/09 23:47:36;;;;;;;13.63;12.38;;;;;;;;;;10060132;28;20085;-71
2023/11/09 23:52:28;;;;;;;13.88;12.57;;;;;;;;;;10028917;28;20487;-70
2023/11/09 23:57:20;;;;;;;14.57;13.13;;;;;;;;;;10023093;28;20042;-70
